Terminal Aerodrome Forecast
Issued by NWS Cleveland, OH

Home | Current Version | Previous Version | Graphics & Text | Print | Product List | Glossary On
Versions: 1 2 3 4 5 6 7 8 9 10 11 12 13 14 15 16 17 18 19 20 21 22 23 24 25
000
FTUS41 KCLE 012300 CCA
TAFYNG
TAF COR
KYNG 012355Z 0200/0224 26005KT 1 1/2SM -SN BR BKN004 OVC012
      TEMPO 0200/0204 3SM -SN BR SCT004 OVC012
     FM020400 27006KT 3SM BR SCT006 OVC012
      TEMPO 0206/0210 6SM BKN006 OVC012
     FM021000 28008KT 6SM BR OVC018
     FM021400 28011KT P6SM OVC025
     FM022000 28008KT P6SM SCT025 OVC045=

USA.gov is the U.S. government's official web portal to all federal, state and local government web resources and services.